sensor_id;sensor_type;location;lat;lon;timestamp;pressure;altitude;pressure_sealevel;temperature;humidity
68329;BME280;55182;56.864;60.554;2022-12-07T00:01:35;80469.56;;;-143.60;78.53
68329;BME280;55182;56.864;60.554;2022-12-07T00:04:02;80461.53;;;-143.60;78.54
68329;BME280;55182;56.864;60.554;2022-12-07T00:06:27;80461.53;;;-143.60;78.90
68329;BME280;55182;56.864;60.554;2022-12-07T00:08:53;80457.50;;;-143.60;78.80
68329;BME280;55182;56.864;60.554;2022-12-07T00:11:19;80457.50;;;-143.60;78.79
68329;BME280;55182;56.864;60.554;2022-12-07T00:13:45;80433.34;;;-143.60;78.93
68329;BME280;55182;56.864;60.554;2022-12-07T00:16:12;80413.25;;;-143.60;79.08
68329;BME280;55182;56.864;60.554;2022-12-07T00:18:38;80401.16;;;-143.60;79.04
68329;BME280;55182;56.864;60.554;2022-12-07T00:21:05;80381.06;;;-143.60;79.15
68329;BME280;55182;56.864;60.554;2022-12-07T00:23:31;80360.94;;;-143.60;79.09
68329;BME280;55182;56.864;60.554;2022-12-07T00:26:02;80342.84;;;-143.60;79.08
68329;BME280;55182;56.864;60.554;2022-12-07T00:28:27;80320.69;;;-143.60;79.34
68329;BME280;55182;56.864;60.554;2022-12-07T00:30:59;80308.63;;;-143.60;79.19
68329;BME280;55182;56.864;60.554;2022-12-07T00:33:24;80276.44;;;-143.60;79.15
68329;BME280;55182;56.864;60.554;2022-12-07T00:35:54;80262.38;;;-143.60;78.77
68329;BME280;55182;56.864;60.554;2022-12-07T00:38:20;80252.31;;;-143.60;78.80
68329;BME280;55182;56.864;60.554;2022-12-07T00:40:53;80244.25;;;-143.60;78.58
68329;BME280;55182;56.864;60.554;2022-12-07T00:43:18;80244.25;;;-143.60;78.64
68329;BME280;55182;56.864;60.554;2022-12-07T00:45:44;80240.25;;;-143.60;78.64
68329;BME280;55182;56.864;60.554;2022-12-07T00:48:09;80224.16;;;-143.60;78.75
68329;BME280;55182;56.864;60.554;2022-12-07T00:50:34;80216.09;;;-143.60;78.54
68329;BME280;55182;56.864;60.554;2022-12-07T00:53:00;80224.16;;;-143.60;78.64
68329;BME280;55182;56.864;60.554;2022-12-07T00:55:25;80228.16;;;-143.60;78.46
68329;BME280;55182;56.864;60.554;2022-12-07T00:57:51;80228.16;;;-143.60;78.57
68329;BME280;55182;56.864;60.554;2022-12-07T01:00:16;80234.22;;;-143.60;78.57
68329;BME280;55182;56.864;60.554;2022-12-07T01:02:42;80240.25;;;-143.60;78.72
68329;BME280;55182;56.864;60.554;2022-12-07T01:05:07;80242.25;;;-143.60;78.79
68329;BME280;55182;56.864;60.554;2022-12-07T01:07:33;80238.22;;;-143.60;78.80
68329;BME280;55182;56.864;60.554;2022-12-07T01:09:59;80228.16;;;-143.60;78.77
68329;BME280;55182;56.864;60.554;2022-12-07T01:12:24;80234.22;;;-143.60;78.85
68329;BME280;55182;56.864;60.554;2022-12-07T01:14:50;80232.19;;;-143.60;78.90
68329;BME280;55182;56.864;60.554;2022-12-07T01:17:15;80232.19;;;-143.60;78.86
68329;BME280;55182;56.864;60.554;2022-12-07T01:19:41;80224.16;;;-143.60;79.08
68329;BME280;55182;56.864;60.554;2022-12-07T01:22:06;80232.19;;;-143.60;78.75
68329;BME280;55182;56.864;60.554;2022-12-07T01:24:31;80240.25;;;-143.60;78.95
68329;BME280;55182;56.864;60.554;2022-12-07T01:26:57;80244.25;;;-143.60;78.86
68329;BME280;55182;56.864;60.554;2022-12-07T01:29:22;80260.34;;;-143.60;78.92
68329;BME280;55182;56.864;60.554;2022-12-07T01:31:48;80264.38;;;-143.60;78.93
68329;BME280;55182;56.864;60.554;2022-12-07T01:34:13;80260.34;;;-143.60;78.68
68329;BME280;55182;56.864;60.554;2022-12-07T01:36:39;80264.38;;;-143.60;79.00
68329;BME280;55182;56.864;60.554;2022-12-07T01:39:05;80276.44;;;-143.60;78.66
68329;BME280;55182;56.864;60.554;2022-12-07T01:41:32;80292.53;;;-143.60;78.90
68329;BME280;55182;56.864;60.554;2022-12-07T01:46:32;80292.53;;;-143.60;79.00
68329;BME280;55182;56.864;60.554;2022-12-07T01:48:57;80280.47;;;-143.60;79.12
68329;BME280;55182;56.864;60.554;2022-12-07T01:51:24;80274.44;;;-143.60;79.10
68329;BME280;55182;56.864;60.554;2022-12-07T01:53:49;80270.41;;;-143.60;79.06
68329;BME280;55182;56.864;60.554;2022-12-07T01:56:16;80266.41;;;-143.60;79.01
68329;BME280;55182;56.864;60.554;2022-12-07T01:58:44;80264.38;;;-143.60;78.81
68329;BME280;55182;56.864;60.554;2022-12-07T02:01:10;80272.44;;;-143.60;78.81
68329;BME280;55182;56.864;60.554;2022-12-07T02:03:39;80276.44;;;-143.60;78.90
68329;BME280;55182;56.864;60.554;2022-12-07T02:06:05;80270.41;;;-143.60;78.79
68329;BME280;55182;56.864;60.554;2022-12-07T02:08:31;80276.44;;;-143.60;79.06
68329;BME280;55182;56.864;60.554;2022-12-07T02:10:57;80266.41;;;-143.60;78.86
68329;BME280;55182;56.864;60.554;2022-12-07T02:13:25;80260.34;;;-143.60;78.72
68329;BME280;55182;56.864;60.554;2022-12-07T02:24:13;80264.38;;;-143.60;78.87
68329;BME280;55182;56.864;60.554;2022-12-07T02:31:56;80286.50;;;-143.60;78.85
68329;BME280;55182;56.864;60.554;2022-12-07T02:34:34;80292.53;;;-143.60;78.77
68329;BME280;55182;56.864;60.554;2022-12-07T02:37:05;80310.66;;;-143.60;78.61
68329;BME280;55182;56.864;60.554;2022-12-07T02:39:37;80328.75;;;-143.60;78.62
68329;BME280;55182;56.864;60.554;2022-12-07T02:42:07;80320.69;;;-143.60;78.78
68329;BME280;55182;56.864;60.554;2022-12-07T02:44:34;80318.69;;;-143.60;79.05
68329;BME280;55182;56.864;60.554;2022-12-07T02:47:02;80316.69;;;-143.60;79.00
68329;BME280;55182;56.864;60.554;2022-12-07T02:49:28;80312.66;;;-143.60;78.97
68329;BME280;55182;56.864;60.554;2022-12-07T02:51:54;80308.63;;;-143.60;78.94
68329;BME280;55182;56.864;60.554;2022-12-07T02:54:20;80300.59;;;-143.60;78.96
68329;BME280;55182;56.864;60.554;2022-12-07T02:56:50;80292.53;;;-143.60;79.08
68329;BME280;55182;56.864;60.554;2022-12-07T02:59:24;80290.53;;;-143.60;79.21
68329;BME280;55182;56.864;60.554;2022-12-07T03:02:03;80290.53;;;-143.60;79.15
68329;BME280;55182;56.864;60.554;2022-12-07T03:04:34;80300.59;;;-143.60;79.33
68329;BME280;55182;56.864;60.554;2022-12-07T03:07:11;80292.53;;;-143.60;79.14
68329;BME280;55182;56.864;60.554;2022-12-07T03:12:16;80288.53;;;-143.60;79.06
68329;BME280;55182;56.864;60.554;2022-12-07T03:14:55;80296.56;;;-143.60;79.11
68329;BME280;55182;56.864;60.554;2022-12-07T03:17:25;80300.59;;;-143.60;79.03
68329;BME280;55182;56.864;60.554;2022-12-07T03:19:51;80300.59;;;-143.60;79.20
68329;BME280;55182;56.864;60.554;2022-12-07T03:22:19;80300.59;;;-143.60;79.16
68329;BME280;55182;56.864;60.554;2022-12-07T03:24:47;80292.53;;;-143.60;79.27
68329;BME280;55182;56.864;60.554;2022-12-07T03:29:47;80270.41;;;-143.60;79.34
68329;BME280;55182;56.864;60.554;2022-12-07T03:32:16;80268.41;;;-143.60;79.19
68329;BME280;55182;56.864;60.554;2022-12-07T03:35:07;80272.44;;;-143.60;78.99
68329;BME280;55182;56.864;60.554;2022-12-07T03:40:11;80276.44;;;-143.60;79.05
68329;BME280;55182;56.864;60.554;2022-12-07T03:42:39;80264.38;;;-143.60;79.35
68329;BME280;55182;56.864;60.554;2022-12-07T03:45:05;80256.34;;;-143.60;79.36
68329;BME280;55182;56.864;60.554;2022-12-07T03:50:06;80240.25;;;-143.60;79.39
68329;BME280;55182;56.864;60.554;2022-12-07T03:52:40;80240.25;;;-143.60;79.37
68329;BME280;55182;56.864;60.554;2022-12-07T03:57:46;80264.38;;;-143.60;78.94
68329;BME280;55182;56.864;60.554;2022-12-07T04:00:13;80268.41;;;-143.60;78.91
68329;BME280;55182;56.864;60.554;2022-12-07T04:02:38;80266.41;;;-143.60;79.18
68329;BME280;55182;56.864;60.554;2022-12-07T04:05:04;80260.34;;;-143.60;79.27
68329;BME280;55182;56.864;60.554;2022-12-07T04:07:29;80250.31;;;-143.60;79.12
68329;BME280;55182;56.864;60.554;2022-12-07T04:09:55;80244.25;;;-143.60;79.21
68329;BME280;55182;56.864;60.554;2022-12-07T04:12:21;80258.34;;;-143.60;79.11
68329;BME280;55182;56.864;60.554;2022-12-07T04:14:46;80258.34;;;-143.60;79.11
68329;BME280;55182;56.864;60.554;2022-12-07T04:17:12;80268.41;;;-143.60;79.13
68329;BME280;55182;56.864;60.554;2022-12-07T04:19:37;80280.47;;;-143.60;79.04
68329;BME280;55182;56.864;60.554;2022-12-07T04:22:03;80286.50;;;-143.60;79.00
68329;BME280;55182;56.864;60.554;2022-12-07T04:24:29;80284.50;;;-143.60;79.17
68329;BME280;55182;56.864;60.554;2022-12-07T04:26:54;80278.47;;;-143.60;79.19
68329;BME280;55182;56.864;60.554;2022-12-07T04:29:20;80272.44;;;-143.60;79.18
68329;BME280;55182;56.864;60.554;2022-12-07T04:31:46;80272.44;;;-143.60;79.26
68329;BME280;55182;56.864;60.554;2022-12-07T04:34:11;80264.38;;;-143.60;79.09
68329;BME280;55182;56.864;60.554;2022-12-07T04:36:37;80256.34;;;-143.60;79.26
68329;BME280;55182;56.864;60.554;2022-12-07T04:39:03;80248.28;;;-143.60;79.35
68329;BME280;55182;56.864;60.554;2022-12-07T04:41:29;80246.28;;;-143.60;79.32
68329;BME280;55182;56.864;60.554;2022-12-07T04:43:59;80236.22;;;-143.60;79.27
68329;BME280;55182;56.864;60.554;2022-12-07T04:46:25;80224.16;;;-143.60;79.32
68329;BME280;55182;56.864;60.554;2022-12-07T04:48:51;80216.09;;;-143.60;79.28
68329;BME280;55182;56.864;60.554;2022-12-07T04:51:19;80198.00;;;-143.60;79.07
68329;BME280;55182;56.864;60.554;2022-12-07T04:53:45;80189.97;;;-143.60;79.13
68329;BME280;55182;56.864;60.554;2022-12-07T04:56:10;80187.94;;;-143.60;79.17
68329;BME280;55182;56.864;60.554;2022-12-07T04:58:36;80185.94;;;-143.60;79.10
68329;BME280;55182;56.864;60.554;2022-12-07T05:01:01;80175.88;;;-143.60;78.85
68329;BME280;55182;56.864;60.554;2022-12-07T05:03:27;80179.91;;;-143.60;78.72
68329;BME280;55182;56.864;60.554;2022-12-07T05:05:52;80177.88;;;-143.60;78.90
68329;BME280;55182;56.864;60.554;2022-12-07T05:08:17;80175.88;;;-143.60;78.80
68329;BME280;55182;56.864;60.554;2022-12-07T05:10:43;80181.91;;;-143.60;78.75
68329;BME280;55182;56.864;60.554;2022-12-07T05:13:08;80183.91;;;-143.60;78.69
68329;BME280;55182;56.864;60.554;2022-12-07T05:15:34;80167.81;;;-143.60;78.85
68329;BME280;55182;56.864;60.554;2022-12-07T05:17:59;80169.84;;;-143.60;78.83
68329;BME280;55182;56.864;60.554;2022-12-07T05:20:25;80161.78;;;-143.60;78.89
68329;BME280;55182;56.864;60.554;2022-12-07T05:22:50;80157.78;;;-143.60;78.83
68329;BME280;55182;56.864;60.554;2022-12-07T05:25:16;80161.78;;;-143.60;78.71
68329;BME280;55182;56.864;60.554;2022-12-07T05:27:41;80161.78;;;-143.60;78.75
68329;BME280;55182;56.864;60.554;2022-12-07T05:30:07;80163.81;;;-143.60;78.86
68329;BME280;55182;56.864;60.554;2022-12-07T05:32:33;80155.75;;;-143.60;78.82
68329;BME280;55182;56.864;60.554;2022-12-07T05:34:58;80151.72;;;-143.60;78.77
68329;BME280;55182;56.864;60.554;2022-12-07T05:37:24;80123.56;;;-143.60;78.93
68329;BME280;55182;56.864;60.554;2022-12-07T05:39:49;80121.56;;;-143.60;78.81
68329;BME280;55182;56.864;60.554;2022-12-07T05:42:15;80115.53;;;-143.60;79.02
68329;BME280;55182;56.864;60.554;2022-12-07T05:44:41;80107.47;;;-143.60;78.75
68329;BME280;55182;56.864;60.554;2022-12-07T05:47:07;80115.53;;;-143.60;78.56
68329;BME280;55182;56.864;60.554;2022-12-07T05:49:33;80111.50;;;-143.60;78.62
68329;BME280;55182;56.864;60.554;2022-12-07T05:51:58;80115.53;;;-143.60;78.62
68329;BME280;55182;56.864;60.554;2022-12-07T05:54:24;80111.50;;;-143.60;78.95
68329;BME280;55182;56.864;60.554;2022-12-07T05:56:49;80111.50;;;-143.60;78.71
68329;BME280;55182;56.864;60.554;2022-12-07T05:59:15;80107.47;;;-143.60;78.83
68329;BME280;55182;56.864;60.554;2022-12-07T06:01:40;80103.47;;;-143.60;78.90
68329;BME280;55182;56.864;60.554;2022-12-07T06:04:06;80097.44;;;-143.60;78.68
68329;BME280;55182;56.864;60.554;2022-12-07T06:06:31;80095.41;;;-143.60;78.59
68329;BME280;55182;56.864;60.554;2022-12-07T06:08:56;80087.38;;;-143.60;78.64
68329;BME280;55182;56.864;60.554;2022-12-07T06:11:22;80079.31;;;-143.60;78.74
68329;BME280;55182;56.864;60.554;2022-12-07T06:13:47;80093.41;;;-143.60;78.57
68329;BME280;55182;56.864;60.554;2022-12-07T06:16:13;80079.31;;;-143.60;78.87
68329;BME280;55182;56.864;60.554;2022-12-07T06:18:38;80075.31;;;-143.60;78.67
68329;BME280;55182;56.864;60.554;2022-12-07T06:21:04;80075.31;;;-143.60;78.64
68329;BME280;55182;56.864;60.554;2022-12-07T06:23:29;80069.25;;;-143.60;78.86
68329;BME280;55182;56.864;60.554;2022-12-07T06:25:55;80053.19;;;-143.60;78.69
68329;BME280;55182;56.864;60.554;2022-12-07T06:28:21;80051.16;;;-143.60;78.65
68329;BME280;55182;56.864;60.554;2022-12-07T06:30:46;80039.09;;;-143.60;78.84
68329;BME280;55182;56.864;60.554;2022-12-07T06:33:12;80029.03;;;-143.60;78.80
68329;BME280;55182;56.864;60.554;2022-12-07T06:35:37;80023.00;;;-143.60;78.94
68329;BME280;55182;56.864;60.554;2022-12-07T06:38:03;80012.94;;;-143.60;78.93
68329;BME280;55182;56.864;60.554;2022-12-07T06:40:29;80004.91;;;-143.60;78.85
68329;BME280;55182;56.864;60.554;2022-12-07T06:42:54;79996.84;;;-143.60;78.95
68329;BME280;55182;56.864;60.554;2022-12-07T06:45:20;79990.81;;;-143.60;78.94
68329;BME280;55182;56.864;60.554;2022-12-07T06:47:45;79990.81;;;-143.60;78.99
68329;BME280;55182;56.864;60.554;2022-12-07T06:50:10;79996.84;;;-143.60;79.19
68329;BME280;55182;56.864;60.554;2022-12-07T06:52:36;79988.81;;;-143.60;79.07
68329;BME280;55182;56.864;60.554;2022-12-07T06:55:01;79982.78;;;-143.60;79.11
68329;BME280;55182;56.864;60.554;2022-12-07T06:57:27;79958.63;;;-143.60;79.37
68329;BME280;55182;56.864;60.554;2022-12-07T06:59:53;79944.56;;;-143.60;79.24
68329;BME280;55182;56.864;60.554;2022-12-07T07:02:18;79934.50;;;-143.60;79.26
68329;BME280;55182;56.864;60.554;2022-12-07T07:04:44;79924.44;;;-143.60;79.32
68329;BME280;55182;56.864;60.554;2022-12-07T07:07:09;79918.41;;;-143.60;79.11
68329;BME280;55182;56.864;60.554;2022-12-07T07:09:34;79918.41;;;-143.60;79.26
68329;BME280;55182;56.864;60.554;2022-12-07T07:12:00;79902.31;;;-143.60;79.49
68329;BME280;55182;56.864;60.554;2022-12-07T07:14:26;79890.25;;;-143.60;79.36
68329;BME280;55182;56.864;60.554;2022-12-07T07:16:52;79874.16;;;-143.60;79.39
68329;BME280;55182;56.864;60.554;2022-12-07T07:19:17;79870.13;;;-143.60;79.36
68329;BME280;55182;56.864;60.554;2022-12-07T07:21:43;79866.13;;;-143.60;79.49
68329;BME280;55182;56.864;60.554;2022-12-07T07:24:08;79854.03;;;-143.60;79.32
68329;BME280;55182;56.864;60.554;2022-12-07T07:26:33;79846.00;;;-143.60;79.54
68329;BME280;55182;56.864;60.554;2022-12-07T07:28:59;79841.97;;;-143.60;79.40
68329;BME280;55182;56.864;60.554;2022-12-07T07:31:24;79829.91;;;-143.60;79.48
68329;BME280;55182;56.864;60.554;2022-12-07T07:33:50;79823.88;;;-143.60;79.41
68329;BME280;55182;56.864;60.554;2022-12-07T07:36:15;79809.78;;;-143.60;79.73
68329;BME280;55182;56.864;60.554;2022-12-07T07:38:41;79805.78;;;-143.60;79.68
68329;BME280;55182;56.864;60.554;2022-12-07T07:41:06;79793.72;;;-143.60;79.73
68329;BME280;55182;56.864;60.554;2022-12-07T07:43:32;79781.63;;;-143.60;79.74
68329;BME280;55182;56.864;60.554;2022-12-07T07:45:57;79773.59;;;-143.60;79.77
68329;BME280;55182;56.864;60.554;2022-12-07T07:48:23;79763.53;;;-143.60;79.66
68329;BME280;55182;56.864;60.554;2022-12-07T07:50:48;79745.44;;;-143.60;79.73
68329;BME280;55182;56.864;60.554;2022-12-07T07:53:14;79735.38;;;-143.60;79.65
68329;BME280;55182;56.864;60.554;2022-12-07T07:55:39;79731.34;;;-143.60;79.63
68329;BME280;55182;56.864;60.554;2022-12-07T07:58:04;79713.25;;;-143.60;79.58
68329;BME280;55182;56.864;60.554;2022-12-07T08:00:30;79707.22;;;-143.60;79.60
68329;BME280;55182;56.864;60.554;2022-12-07T08:02:55;79693.13;;;-143.60;79.71
68329;BME280;55182;56.864;60.554;2022-12-07T08:05:21;79689.13;;;-143.60;79.40
68329;BME280;55182;56.864;60.554;2022-12-07T08:07:46;79685.09;;;-143.60;79.63
68329;BME280;55182;56.864;60.554;2022-12-07T08:10:12;79681.06;;;-143.60;79.50
68329;BME280;55182;56.864;60.554;2022-12-07T08:12:39;79667.00;;;-143.60;79.58
68329;BME280;55182;56.864;60.554;2022-12-07T08:15:05;79658.94;;;-143.60;79.71
68329;BME280;55182;56.864;60.554;2022-12-07T08:17:30;79652.91;;;-143.60;79.81
68329;BME280;55182;56.864;60.554;2022-12-07T08:19:56;79632.81;;;-143.60;79.68
68329;BME280;55182;56.864;60.554;2022-12-07T08:22:21;79632.81;;;-143.60;79.49
68329;BME280;55182;56.864;60.554;2022-12-07T08:24:47;79618.72;;;-143.60;79.60
68329;BME280;55182;56.864;60.554;2022-12-07T08:27:12;79596.59;;;-143.60;79.52
68329;BME280;55182;56.864;60.554;2022-12-07T08:29:38;79600.63;;;-143.60;79.73
68329;BME280;55182;56.864;60.554;2022-12-07T08:32:03;79602.63;;;-143.60;79.60
68329;BME280;55182;56.864;60.554;2022-12-07T08:34:29;79592.59;;;-143.60;79.60
68329;BME280;55182;56.864;60.554;2022-12-07T08:36:54;79588.56;;;-143.60;79.75
68329;BME280;55182;56.864;60.554;2022-12-07T08:39:19;79572.47;;;-143.60;79.71
68329;BME280;55182;56.864;60.554;2022-12-07T08:41:45;79568.44;;;-143.60;79.60
68329;BME280;55182;56.864;60.554;2022-12-07T08:44:10;79562.41;;;-143.60;79.63
68329;BME280;55182;56.864;60.554;2022-12-07T08:46:44;79556.38;;;-143.60;79.77
68329;BME280;55182;56.864;60.554;2022-12-07T08:49:13;79548.34;;;-143.60;79.78
68329;BME280;55182;56.864;60.554;2022-12-07T08:51:41;79538.28;;;-143.60;79.85
68329;BME280;55182;56.864;60.554;2022-12-07T08:54:07;79528.22;;;-143.60;79.71
68329;BME280;55182;56.864;60.554;2022-12-07T08:56:34;79520.19;;;-143.60;79.71
68329;BME280;55182;56.864;60.554;2022-12-07T08:58:59;79520.19;;;-143.60;79.65
68329;BME280;55182;56.864;60.554;2022-12-07T09:01:25;79514.16;;;-143.60;79.74
68329;BME280;55182;56.864;60.554;2022-12-07T09:03:50;79516.16;;;-143.60;79.85
68329;BME280;55182;56.864;60.554;2022-12-07T09:06:16;79500.06;;;-143.60;79.75
68329;BME280;55182;56.864;60.554;2022-12-07T09:08:43;79500.06;;;-143.60;79.67
68329;BME280;55182;56.864;60.554;2022-12-07T09:11:11;79502.06;;;-143.60;79.91
68329;BME280;55182;56.864;60.554;2022-12-07T09:13:36;79502.06;;;-143.60;79.80
68329;BME280;55182;56.864;60.554;2022-12-07T09:16:02;79492.03;;;-143.60;79.70
68329;BME280;55182;56.864;60.554;2022-12-07T09:18:27;79496.03;;;-143.60;79.60
68329;BME280;55182;56.864;60.554;2022-12-07T09:20:53;79475.94;;;-143.60;79.49
68329;BME280;55182;56.864;60.554;2022-12-07T09:23:18;79486.00;;;-143.60;79.42
68329;BME280;55182;56.864;60.554;2022-12-07T09:25:44;79486.00;;;-143.60;79.26
68329;BME280;55182;56.864;60.554;2022-12-07T09:28:09;79488.00;;;-143.60;79.13
68329;BME280;55182;56.864;60.554;2022-12-07T09:30:35;79492.03;;;-143.60;78.90
68329;BME280;55182;56.864;60.554;2022-12-07T09:33:00;79494.03;;;-143.60;78.74
68329;BME280;55182;56.864;60.554;2022-12-07T09:35:26;79483.97;;;-143.60;78.56
68329;BME280;55182;56.864;60.554;2022-12-07T09:37:51;79486.00;;;-143.60;78.00
68329;BME280;55182;56.864;60.554;2022-12-07T09:40:17;79496.03;;;-143.60;76.77
68329;BME280;55182;56.864;60.554;2022-12-07T09:42:45;79496.03;;;-143.60;76.35
68329;BME280;55182;56.864;60.554;2022-12-07T09:45:20;79498.06;;;-143.60;76.15
68329;BME280;55182;56.864;60.554;2022-12-07T09:47:46;79496.03;;;-143.60;76.09
68329;BME280;55182;56.864;60.554;2022-12-07T09:50:13;79506.09;;;-143.60;75.94
68329;BME280;55182;56.864;60.554;2022-12-07T09:52:39;79506.09;;;-143.60;75.90
68329;BME280;55182;56.864;60.554;2022-12-07T09:55:09;79508.09;;;-143.60;75.89
68329;BME280;55182;56.864;60.554;2022-12-07T09:57:34;79504.09;;;-143.60;76.04
68329;BME280;55182;56.864;60.554;2022-12-07T10:00:01;79514.16;;;-143.60;76.07
68329;BME280;55182;56.864;60.554;2022-12-07T10:05:01;79512.13;;;-143.60;76.39
68329;BME280;55182;56.864;60.554;2022-12-07T10:07:29;79516.16;;;-143.60;76.34
68329;BME280;55182;56.864;60.554;2022-12-07T10:09:54;79514.16;;;-143.60;76.18
68329;BME280;55182;56.864;60.554;2022-12-07T10:12:20;79524.19;;;-143.60;76.41
68329;BME280;55182;56.864;60.554;2022-12-07T10:15:01;79520.19;;;-143.60;76.41
68329;BME280;55182;56.864;60.554;2022-12-07T10:17:32;79516.16;;;-143.60;76.49
68329;BME280;55182;56.864;60.554;2022-12-07T10:20:14;79524.19;;;-143.60;76.51
68329;BME280;55182;56.864;60.554;2022-12-07T10:22:57;79532.25;;;-143.60;76.40
68329;BME280;55182;56.864;60.554;2022-12-07T10:25:25;79528.22;;;-143.60;76.47
68329;BME280;55182;56.864;60.554;2022-12-07T10:28:27;79520.19;;;-143.60;76.45
68329;BME280;55182;56.864;60.554;2022-12-07T10:30:47;79524.19;;;-143.60;76.27
68329;BME280;55182;56.864;60.554;2022-12-07T10:33:32;79520.19;;;-143.60;76.33
68329;BME280;55182;56.864;60.554;2022-12-07T10:35:58;79526.22;;;-143.60;76.33
68329;BME280;55182;56.864;60.554;2022-12-07T10:38:27;79530.22;;;-143.60;76.33
68329;BME280;55182;56.864;60.554;2022-12-07T10:41:02;79536.25;;;-143.60;76.28
68329;BME280;55182;56.864;60.554;2022-12-07T10:43:28;79532.25;;;-143.60;76.44
68329;BME280;55182;56.864;60.554;2022-12-07T10:46:00;79536.25;;;-143.60;76.31
68329;BME280;55182;56.864;60.554;2022-12-07T10:51:24;79544.31;;;-143.60;76.58
68329;BME280;55182;56.864;60.554;2022-12-07T10:53:56;79544.31;;;-143.60;76.48
68329;BME280;55182;56.864;60.554;2022-12-07T10:56:38;79536.25;;;-143.60;76.46
68329;BME280;55182;56.864;60.554;2022-12-07T11:07:05;79574.47;;;-143.60;76.78
68329;BME280;55182;56.864;60.554;2022-12-07T11:20:12;79640.84;;;-143.60;77.58
68329;BME280;55182;56.864;60.554;2022-12-07T11:22:42;79646.88;;;-143.60;77.75
68329;BME280;55182;56.864;60.554;2022-12-07T11:25:20;79646.88;;;-143.60;77.59
68329;BME280;55182;56.864;60.554;2022-12-07T11:27:55;79656.94;;;-143.60;77.69
68329;BME280;55182;56.864;60.554;2022-12-07T11:30:32;79669.00;;;-143.60;77.86
68329;BME280;55182;56.864;60.554;2022-12-07T11:33:46;79667.00;;;-143.60;77.95
68329;BME280;55182;56.864;60.554;2022-12-07T11:39:07;79664.97;;;-143.60;77.86
68329;BME280;55182;56.864;60.554;2022-12-07T11:41:11;79677.06;;;-143.60;77.99
68329;BME280;55182;56.864;60.554;2022-12-07T11:43:41;79687.09;;;-143.60;77.94
68329;BME280;55182;56.864;60.554;2022-12-07T11:46:12;79685.09;;;-143.60;77.74
68329;BME280;55182;56.864;60.554;2022-12-07T11:48:43;79701.19;;;-143.60;78.10
68329;BME280;55182;56.864;60.554;2022-12-07T11:51:10;79705.22;;;-143.60;78.16
68329;BME280;55182;56.864;60.554;2022-12-07T11:53:38;79715.25;;;-143.60;78.15
68329;BME280;55182;56.864;60.554;2022-12-07T12:03:34;79729.34;;;-143.60;78.38
68329;BME280;55182;56.864;60.554;2022-12-07T12:06:03;79733.38;;;-143.60;78.30
68329;BME280;55182;56.864;60.554;2022-12-07T12:08:32;79739.41;;;-143.60;78.22
68329;BME280;55182;56.864;60.554;2022-12-07T12:11:02;79741.41;;;-143.60;78.30
68329;BME280;55182;56.864;60.554;2022-12-07T12:16:15;79745.44;;;-143.60;78.22
68329;BME280;55182;56.864;60.554;2022-12-07T12:21:29;79749.47;;;-143.60;78.07
68329;BME280;55182;56.864;60.554;2022-12-07T12:23:59;79757.50;;;-143.60;77.99
68329;BME280;55182;56.864;60.554;2022-12-07T12:26:27;79767.56;;;-143.60;78.11
68329;BME280;55182;56.864;60.554;2022-12-07T12:29:06;79777.63;;;-143.60;78.12
68329;BME280;55182;56.864;60.554;2022-12-07T12:31:46;79769.56;;;-143.60;78.24
68329;BME280;55182;56.864;60.554;2022-12-07T12:34:30;79779.63;;;-143.60;78.36
68329;BME280;55182;56.864;60.554;2022-12-07T12:36:56;79777.63;;;-143.60;78.26
68329;BME280;55182;56.864;60.554;2022-12-07T12:39:21;79795.72;;;-143.60;78.26
68329;BME280;55182;56.864;60.554;2022-12-07T12:46:44;79795.72;;;-143.60;78.53
68329;BME280;55182;56.864;60.554;2022-12-07T12:54:14;79807.78;;;-143.60;78.55
68329;BME280;55182;56.864;60.554;2022-12-07T12:56:46;79813.81;;;-143.60;78.59
68329;BME280;55182;56.864;60.554;2022-12-07T13:01:48;79805.78;;;-143.60;78.59
68329;BME280;55182;56.864;60.554;2022-12-07T13:04:24;79797.72;;;-143.60;78.35
68329;BME280;55182;56.864;60.554;2022-12-07T13:06:51;79797.72;;;-143.60;78.45
68329;BME280;55182;56.864;60.554;2022-12-07T13:09:24;79797.72;;;-143.60;78.31
68329;BME280;55182;56.864;60.554;2022-12-07T13:11:55;79813.81;;;-143.60;78.16
68329;BME280;55182;56.864;60.554;2022-12-07T13:17:02;79819.84;;;-143.60;78.55
68329;BME280;55182;56.864;60.554;2022-12-07T13:24:54;79811.81;;;-143.60;78.47
68329;BME280;55182;56.864;60.554;2022-12-07T13:27:21;79811.81;;;-143.60;78.52
68329;BME280;55182;56.864;60.554;2022-12-07T13:29:47;79813.81;;;-143.60;78.40
68329;BME280;55182;56.864;60.554;2022-12-07T13:32:26;79809.78;;;-143.60;78.21
68329;BME280;55182;56.864;60.554;2022-12-07T13:34:52;79813.81;;;-143.60;78.38
68329;BME280;55182;56.864;60.554;2022-12-07T13:37:21;79805.78;;;-143.60;78.31
68329;BME280;55182;56.864;60.554;2022-12-07T13:39:54;79801.75;;;-143.60;78.15
68329;BME280;55182;56.864;60.554;2022-12-07T13:44:45;79801.75;;;-143.60;78.07
68329;BME280;55182;56.864;60.554;2022-12-07T13:47:26;79797.72;;;-143.60;77.99
68329;BME280;55182;56.864;60.554;2022-12-07T13:49:56;79809.78;;;-143.60;77.76
68329;BME280;55182;56.864;60.554;2022-12-07T13:52:25;79825.88;;;-143.60;77.83
68329;BME280;55182;56.864;60.554;2022-12-07T13:57:26;79829.91;;;-143.60;78.23
68329;BME280;55182;56.864;60.554;2022-12-07T13:59:52;79835.94;;;-143.60;78.30
68329;BME280;55182;56.864;60.554;2022-12-07T14:04:44;79835.94;;;-143.60;78.59
68329;BME280;55182;56.864;60.554;2022-12-07T14:07:25;79829.91;;;-143.60;78.61
68329;BME280;55182;56.864;60.554;2022-12-07T14:09:55;79823.88;;;-143.60;78.67